sensor_id;sensor_type;location;lat;lon;timestamp;P1;durP1;ratioP1;P2;durP2;ratioP2
26335;SDS011;14047;50.936;4.654;2022-08-19T00:01:07;15.77;;;12.05;;
26335;SDS011;14047;50.936;4.654;2022-08-19T00:03:33;17.38;;;13.50;;
26335;SDS011;14047;50.936;4.654;2022-08-19T00:05:59;17.45;;;14.85;;
26335;SDS011;14047;50.936;4.654;2022-08-19T00:08:25;22.98;;;15.38;;
26335;SDS011;14047;50.936;4.654;2022-08-19T00:10:50;21.58;;;15.65;;
26335;SDS011;14047;50.936;4.654;2022-08-19T00:13:17;19.30;;;15.05;;
26335;SDS011;14047;50.936;4.654;2022-08-19T00:15:43;23.10;;;14.88;;
26335;SDS011;14047;50.936;4.654;2022-08-19T00:18:09;21.63;;;15.85;;
26335;SDS011;14047;50.936;4.654;2022-08-19T00:20:35;25.30;;;17.77;;
26335;SDS011;14047;50.936;4.654;2022-08-19T00:23:03;30.65;;;19.33;;
26335;SDS011;14047;50.936;4.654;2022-08-19T00:25:28;30.20;;;18.90;;
26335;SDS011;14047;50.936;4.654;2022-08-19T00:27:54;24.35;;;16.83;;
26335;SDS011;14047;50.936;4.654;2022-08-19T00:30:20;26.70;;;17.08;;
26335;SDS011;14047;50.936;4.654;2022-08-19T00:32:46;21.00;;;16.17;;
26335;SDS011;14047;50.936;4.654;2022-08-19T00:35:12;22.13;;;15.32;;
26335;SDS011;14047;50.936;4.654;2022-08-19T00:37:37;23.10;;;15.65;;
26335;SDS011;14047;50.936;4.654;2022-08-19T00:40:08;26.27;;;18.48;;
26335;SDS011;14047;50.936;4.654;2022-08-19T00:42:35;23.33;;;17.27;;
26335;SDS011;14047;50.936;4.654;2022-08-19T00:45:00;27.58;;;18.98;;
26335;SDS011;14047;50.936;4.654;2022-08-19T00:47:27;26.15;;;16.77;;
26335;SDS011;14047;50.936;4.654;2022-08-19T00:49:55;34.38;;;21.50;;
26335;SDS011;14047;50.936;4.654;2022-08-19T00:52:35;34.78;;;21.33;;
26335;SDS011;14047;50.936;4.654;2022-08-19T00:55:05;33.17;;;22.17;;
26335;SDS011;14047;50.936;4.654;2022-08-19T00:57:37;32.92;;;22.77;;
26335;SDS011;14047;50.936;4.654;2022-08-19T01:00:08;38.03;;;24.30;;
26335;SDS011;14047;50.936;4.654;2022-08-19T01:02:37;41.20;;;24.65;;
26335;SDS011;14047;50.936;4.654;2022-08-19T01:05:05;40.58;;;25.42;;
26335;SDS011;14047;50.936;4.654;2022-08-19T01:07:34;46.35;;;28.58;;
26335;SDS011;14047;50.936;4.654;2022-08-19T01:10:02;44.20;;;26.98;;
26335;SDS011;14047;50.936;4.654;2022-08-19T01:12:29;50.42;;;28.40;;
26335;SDS011;14047;50.936;4.654;2022-08-19T01:14:55;49.80;;;27.83;;
26335;SDS011;14047;50.936;4.654;2022-08-19T01:17:21;51.13;;;28.42;;
26335;SDS011;14047;50.936;4.654;2022-08-19T01:19:47;54.90;;;30.70;;
26335;SDS011;14047;50.936;4.654;2022-08-19T01:24:48;50.22;;;31.35;;
26335;SDS011;14047;50.936;4.654;2022-08-19T01:27:13;62.92;;;33.25;;
26335;SDS011;14047;50.936;4.654;2022-08-19T01:29:40;55.88;;;32.65;;
26335;SDS011;14047;50.936;4.654;2022-08-19T01:32:07;61.50;;;34.08;;
26335;SDS011;14047;50.936;4.654;2022-08-19T01:34:34;54.10;;;32.03;;
26335;SDS011;14047;50.936;4.654;2022-08-19T01:37:00;58.25;;;34.33;;
26335;SDS011;14047;50.936;4.654;2022-08-19T01:39:32;58.00;;;33.92;;
26335;SDS011;14047;50.936;4.654;2022-08-19T01:41:59;61.47;;;33.00;;
26335;SDS011;14047;50.936;4.654;2022-08-19T01:44:27;60.33;;;33.35;;
26335;SDS011;14047;50.936;4.654;2022-08-19T01:46:53;68.80;;;36.58;;
26335;SDS011;14047;50.936;4.654;2022-08-19T01:49:20;60.05;;;34.42;;
26335;SDS011;14047;50.936;4.654;2022-08-19T01:51:48;63.05;;;35.25;;
26335;SDS011;14047;50.936;4.654;2022-08-19T01:54:15;68.63;;;38.15;;
26335;SDS011;14047;50.936;4.654;2022-08-19T01:56:41;67.28;;;36.58;;
26335;SDS011;14047;50.936;4.654;2022-08-19T01:59:12;67.32;;;37.00;;
26335;SDS011;14047;50.936;4.654;2022-08-19T02:01:41;67.03;;;34.95;;
26335;SDS011;14047;50.936;4.654;2022-08-19T02:04:06;66.65;;;36.15;;
26335;SDS011;14047;50.936;4.654;2022-08-19T02:06:32;67.70;;;35.50;;
26335;SDS011;14047;50.936;4.654;2022-08-19T02:08:58;63.45;;;34.97;;
26335;SDS011;14047;50.936;4.654;2022-08-19T02:11:26;71.07;;;36.67;;
26335;SDS011;14047;50.936;4.654;2022-08-19T02:13:56;71.38;;;39.13;;
26335;SDS011;14047;50.936;4.654;2022-08-19T02:16:22;68.18;;;37.33;;
26335;SDS011;14047;50.936;4.654;2022-08-19T02:18:48;75.72;;;38.25;;
26335;SDS011;14047;50.936;4.654;2022-08-19T02:21:15;76.75;;;39.10;;
26335;SDS011;14047;50.936;4.654;2022-08-19T02:23:42;76.88;;;40.30;;
26335;SDS011;14047;50.936;4.654;2022-08-19T02:26:08;74.30;;;39.08;;
26335;SDS011;14047;50.936;4.654;2022-08-19T02:28:34;76.78;;;39.75;;
26335;SDS011;14047;50.936;4.654;2022-08-19T02:31:01;85.45;;;41.97;;
26335;SDS011;14047;50.936;4.654;2022-08-19T02:33:27;80.18;;;39.15;;
26335;SDS011;14047;50.936;4.654;2022-08-19T02:35:53;88.20;;;41.58;;
26335;SDS011;14047;50.936;4.654;2022-08-19T02:38:19;77.72;;;38.85;;
26335;SDS011;14047;50.936;4.654;2022-08-19T02:40:51;75.70;;;39.05;;
26335;SDS011;14047;50.936;4.654;2022-08-19T02:43:25;76.70;;;38.17;;
26335;SDS011;14047;50.936;4.654;2022-08-19T02:45:52;65.80;;;36.83;;
26335;SDS011;14047;50.936;4.654;2022-08-19T02:48:19;75.90;;;38.03;;
26335;SDS011;14047;50.936;4.654;2022-08-19T02:50:46;73.90;;;35.47;;
26335;SDS011;14047;50.936;4.654;2022-08-19T02:53:12;76.82;;;38.95;;
26335;SDS011;14047;50.936;4.654;2022-08-19T02:55:45;74.13;;;37.58;;
26335;SDS011;14047;50.936;4.654;2022-08-19T02:58:12;73.72;;;37.53;;
26335;SDS011;14047;50.936;4.654;2022-08-19T03:00:46;67.93;;;37.53;;
26335;SDS011;14047;50.936;4.654;2022-08-19T03:03:14;74.72;;;37.78;;
26335;SDS011;14047;50.936;4.654;2022-08-19T03:05:41;73.35;;;37.35;;
26335;SDS011;14047;50.936;4.654;2022-08-19T03:08:07;77.20;;;36.28;;
26335;SDS011;14047;50.936;4.654;2022-08-19T03:10:43;82.80;;;38.67;;
26335;SDS011;14047;50.936;4.654;2022-08-19T03:13:15;78.90;;;38.83;;
26335;SDS011;14047;50.936;4.654;2022-08-19T03:15:42;71.70;;;35.33;;
26335;SDS011;14047;50.936;4.654;2022-08-19T03:18:10;77.50;;;38.17;;
26335;SDS011;14047;50.936;4.654;2022-08-19T03:20:57;84.63;;;40.05;;
26335;SDS011;14047;50.936;4.654;2022-08-19T03:23:22;86.63;;;37.65;;
26335;SDS011;14047;50.936;4.654;2022-08-19T03:25:49;94.10;;;40.95;;
26335;SDS011;14047;50.936;4.654;2022-08-19T03:28:17;92.72;;;42.30;;
26335;SDS011;14047;50.936;4.654;2022-08-19T03:30:43;89.93;;;38.80;;
26335;SDS011;14047;50.936;4.654;2022-08-19T03:33:24;96.68;;;39.85;;
26335;SDS011;14047;50.936;4.654;2022-08-19T03:36:00;83.20;;;37.53;;
26335;SDS011;14047;50.936;4.654;2022-08-19T03:38:32;79.50;;;37.28;;
26335;SDS011;14047;50.936;4.654;2022-08-19T03:41:02;76.60;;;37.33;;
26335;SDS011;14047;50.936;4.654;2022-08-19T03:43:31;78.22;;;35.85;;
26335;SDS011;14047;50.936;4.654;2022-08-19T03:46:02;69.30;;;34.33;;
26335;SDS011;14047;50.936;4.654;2022-08-19T03:48:30;72.15;;;35.17;;
26335;SDS011;14047;50.936;4.654;2022-08-19T03:50:57;64.80;;;32.92;;
26335;SDS011;14047;50.936;4.654;2022-08-19T03:53:24;63.30;;;33.25;;
26335;SDS011;14047;50.936;4.654;2022-08-19T03:55:51;65.88;;;33.17;;
26335;SDS011;14047;50.936;4.654;2022-08-19T03:58:18;62.28;;;33.13;;
26335;SDS011;14047;50.936;4.654;2022-08-19T04:00:44;66.00;;;33.50;;
26335;SDS011;14047;50.936;4.654;2022-08-19T04:03:09;68.93;;;32.45;;
26335;SDS011;14047;50.936;4.654;2022-08-19T04:05:35;62.08;;;32.35;;
26335;SDS011;14047;50.936;4.654;2022-08-19T04:08:03;63.88;;;31.33;;
26335;SDS011;14047;50.936;4.654;2022-08-19T04:10:30;67.70;;;31.35;;
26335;SDS011;14047;50.936;4.654;2022-08-19T04:13:05;60.00;;;30.67;;
26335;SDS011;14047;50.936;4.654;2022-08-19T04:15:32;59.33;;;30.38;;
26335;SDS011;14047;50.936;4.654;2022-08-19T04:18:04;55.63;;;28.02;;
26335;SDS011;14047;50.936;4.654;2022-08-19T04:20:32;64.47;;;30.40;;
26335;SDS011;14047;50.936;4.654;2022-08-19T04:23:03;54.35;;;29.35;;
26335;SDS011;14047;50.936;4.654;2022-08-19T04:25:34;60.55;;;30.17;;
26335;SDS011;14047;50.936;4.654;2022-08-19T04:28:00;58.95;;;28.95;;
26335;SDS011;14047;50.936;4.654;2022-08-19T04:30:26;58.58;;;30.65;;
26335;SDS011;14047;50.936;4.654;2022-08-19T04:32:52;59.58;;;28.25;;
26335;SDS011;14047;50.936;4.654;2022-08-19T04:35:17;57.53;;;26.67;;
26335;SDS011;14047;50.936;4.654;2022-08-19T04:37:43;55.25;;;27.40;;
26335;SDS011;14047;50.936;4.654;2022-08-19T04:40:09;55.60;;;25.65;;
26335;SDS011;14047;50.936;4.654;2022-08-19T04:42:54;55.30;;;27.52;;
26335;SDS011;14047;50.936;4.654;2022-08-19T04:45:19;40.63;;;24.10;;
26335;SDS011;14047;50.936;4.654;2022-08-19T04:47:45;47.30;;;25.08;;
26335;SDS011;14047;50.936;4.654;2022-08-19T04:50:11;43.75;;;22.73;;
26335;SDS011;14047;50.936;4.654;2022-08-19T04:52:37;44.17;;;22.42;;
26335;SDS011;14047;50.936;4.654;2022-08-19T04:55:07;47.25;;;21.85;;
26335;SDS011;14047;50.936;4.654;2022-08-19T04:57:34;47.33;;;23.17;;
26335;SDS011;14047;50.936;4.654;2022-08-19T05:00:00;47.25;;;22.95;;
26335;SDS011;14047;50.936;4.654;2022-08-19T05:02:26;48.97;;;23.35;;
26335;SDS011;14047;50.936;4.654;2022-08-19T05:04:58;44.90;;;23.33;;
26335;SDS011;14047;50.936;4.654;2022-08-19T05:07:25;45.53;;;21.70;;
26335;SDS011;14047;50.936;4.654;2022-08-19T05:09:52;36.72;;;21.70;;
26335;SDS011;14047;50.936;4.654;2022-08-19T05:12:17;38.28;;;20.73;;
26335;SDS011;14047;50.936;4.654;2022-08-19T05:14:44;43.15;;;19.17;;
26335;SDS011;14047;50.936;4.654;2022-08-19T05:17:12;45.88;;;20.10;;
26335;SDS011;14047;50.936;4.654;2022-08-19T05:19:38;33.78;;;19.10;;
26335;SDS011;14047;50.936;4.654;2022-08-19T05:22:22;36.67;;;18.25;;
26335;SDS011;14047;50.936;4.654;2022-08-19T05:24:59;37.00;;;19.33;;
26335;SDS011;14047;50.936;4.654;2022-08-19T05:27:30;33.22;;;19.15;;
26335;SDS011;14047;50.936;4.654;2022-08-19T05:29:56;39.08;;;18.73;;
26335;SDS011;14047;50.936;4.654;2022-08-19T05:32:21;37.95;;;19.10;;
26335;SDS011;14047;50.936;4.654;2022-08-19T05:34:48;32.53;;;17.98;;
26335;SDS011;14047;50.936;4.654;2022-08-19T05:37:14;33.53;;;17.77;;
26335;SDS011;14047;50.936;4.654;2022-08-19T05:39:39;32.33;;;16.35;;
26335;SDS011;14047;50.936;4.654;2022-08-19T05:42:10;33.00;;;18.27;;
26335;SDS011;14047;50.936;4.654;2022-08-19T05:44:39;31.42;;;17.20;;
26335;SDS011;14047;50.936;4.654;2022-08-19T05:47:09;30.05;;;16.73;;
26335;SDS011;14047;50.936;4.654;2022-08-19T05:49:36;31.50;;;16.67;;
26335;SDS011;14047;50.936;4.654;2022-08-19T05:52:07;31.42;;;16.17;;
26335;SDS011;14047;50.936;4.654;2022-08-19T05:54:36;31.40;;;16.23;;
26335;SDS011;14047;50.936;4.654;2022-08-19T05:57:05;33.10;;;16.67;;
26335;SDS011;14047;50.936;4.654;2022-08-19T05:59:30;25.52;;;16.05;;
26335;SDS011;14047;50.936;4.654;2022-08-19T06:01:56;31.30;;;16.35;;
26335;SDS011;14047;50.936;4.654;2022-08-19T06:04:22;32.03;;;15.52;;
26335;SDS011;14047;50.936;4.654;2022-08-19T06:06:49;34.38;;;15.77;;
26335;SDS011;14047;50.936;4.654;2022-08-19T06:09:16;26.20;;;14.98;;
26335;SDS011;14047;50.936;4.654;2022-08-19T06:11:45;28.58;;;14.90;;
26335;SDS011;14047;50.936;4.654;2022-08-19T06:14:14;31.83;;;15.02;;
26335;SDS011;14047;50.936;4.654;2022-08-19T06:16:42;26.17;;;12.98;;
26335;SDS011;14047;50.936;4.654;2022-08-19T06:19:10;26.40;;;13.65;;
26335;SDS011;14047;50.936;4.654;2022-08-19T06:21:41;24.50;;;13.63;;
26335;SDS011;14047;50.936;4.654;2022-08-19T06:24:10;29.02;;;14.30;;
26335;SDS011;14047;50.936;4.654;2022-08-19T06:26:39;28.10;;;13.05;;
26335;SDS011;14047;50.936;4.654;2022-08-19T06:29:07;25.65;;;12.50;;
26335;SDS011;14047;50.936;4.654;2022-08-19T06:31:34;28.40;;;12.70;;
26335;SDS011;14047;50.936;4.654;2022-08-19T06:34:02;22.85;;;13.05;;
26335;SDS011;14047;50.936;4.654;2022-08-19T06:36:30;24.73;;;12.98;;
26335;SDS011;14047;50.936;4.654;2022-08-19T06:39:02;22.02;;;11.43;;
26335;SDS011;14047;50.936;4.654;2022-08-19T06:41:36;19.17;;;11.93;;
26335;SDS011;14047;50.936;4.654;2022-08-19T06:44:04;19.92;;;11.65;;
26335;SDS011;14047;50.936;4.654;2022-08-19T06:46:30;19.80;;;12.10;;
26335;SDS011;14047;50.936;4.654;2022-08-19T06:48:56;24.33;;;11.93;;
26335;SDS011;14047;50.936;4.654;2022-08-19T06:51:22;23.17;;;12.05;;
26335;SDS011;14047;50.936;4.654;2022-08-19T06:53:49;17.90;;;11.57;;
26335;SDS011;14047;50.936;4.654;2022-08-19T06:56:18;19.85;;;10.60;;
26335;SDS011;14047;50.936;4.654;2022-08-19T06:58:50;24.88;;;10.98;;
26335;SDS011;14047;50.936;4.654;2022-08-19T07:01:18;19.77;;;10.40;;
26335;SDS011;14047;50.936;4.654;2022-08-19T07:03:44;21.10;;;10.68;;
26335;SDS011;14047;50.936;4.654;2022-08-19T07:06:12;19.17;;;9.57;;
26335;SDS011;14047;50.936;4.654;2022-08-19T07:08:42;18.45;;;10.25;;
26335;SDS011;14047;50.936;4.654;2022-08-19T07:11:09;20.17;;;10.20;;
26335;SDS011;14047;50.936;4.654;2022-08-19T07:13:37;25.05;;;11.38;;
26335;SDS011;14047;50.936;4.654;2022-08-19T07:16:04;15.48;;;9.48;;
26335;SDS011;14047;50.936;4.654;2022-08-19T07:18:37;15.90;;;9.05;;
26335;SDS011;14047;50.936;4.654;2022-08-19T07:21:07;16.02;;;8.95;;
26335;SDS011;14047;50.936;4.654;2022-08-19T07:23:38;14.02;;;8.25;;
26335;SDS011;14047;50.936;4.654;2022-08-19T07:26:08;15.15;;;8.38;;
26335;SDS011;14047;50.936;4.654;2022-08-19T07:28:42;19.77;;;8.13;;
26335;SDS011;14047;50.936;4.654;2022-08-19T07:31:11;15.45;;;6.65;;
26335;SDS011;14047;50.936;4.654;2022-08-19T07:33:39;11.93;;;6.40;;
26335;SDS011;14047;50.936;4.654;2022-08-19T07:36:06;14.35;;;6.70;;
26335;SDS011;14047;50.936;4.654;2022-08-19T07:38:36;13.25;;;6.55;;
26335;SDS011;14047;50.936;4.654;2022-08-19T07:41:03;12.07;;;5.65;;
26335;SDS011;14047;50.936;4.654;2022-08-19T07:43:29;13.63;;;5.28;;
26335;SDS011;14047;50.936;4.654;2022-08-19T07:45:55;14.63;;;5.65;;
26335;SDS011;14047;50.936;4.654;2022-08-19T07:48:24;8.32;;;5.50;;
26335;SDS011;14047;50.936;4.654;2022-08-19T07:50:58;16.38;;;5.93;;
26335;SDS011;14047;50.936;4.654;2022-08-19T07:53:29;13.95;;;5.60;;
26335;SDS011;14047;50.936;4.654;2022-08-19T07:55:57;15.73;;;6.68;;
26335;SDS011;14047;50.936;4.654;2022-08-19T07:58:26;11.32;;;5.90;;
26335;SDS011;14047;50.936;4.654;2022-08-19T08:00:52;14.75;;;6.25;;
26335;SDS011;14047;50.936;4.654;2022-08-19T08:03:20;14.77;;;6.18;;
26335;SDS011;14047;50.936;4.654;2022-08-19T08:06:07;13.65;;;5.40;;
26335;SDS011;14047;50.936;4.654;2022-08-19T08:08:52;8.60;;;5.22;;
26335;SDS011;14047;50.936;4.654;2022-08-19T08:11:36;9.68;;;5.80;;
26335;SDS011;14047;50.936;4.654;2022-08-19T08:14:03;9.95;;;5.32;;
26335;SDS011;14047;50.936;4.654;2022-08-19T08:16:30;22.63;;;6.25;;
26335;SDS011;14047;50.936;4.654;2022-08-19T08:18:59;9.32;;;5.63;;
26335;SDS011;14047;50.936;4.654;2022-08-19T08:21:25;10.00;;;5.20;;
26335;SDS011;14047;50.936;4.654;2022-08-19T08:23:50;8.27;;;4.28;;
26335;SDS011;14047;50.936;4.654;2022-08-19T08:26:20;10.00;;;4.10;;
26335;SDS011;14047;50.936;4.654;2022-08-19T08:28:46;5.72;;;4.40;;
26335;SDS011;14047;50.936;4.654;2022-08-19T08:31:13;7.18;;;4.18;;
26335;SDS011;14047;50.936;4.654;2022-08-19T08:33:39;7.18;;;4.47;;
26335;SDS011;14047;50.936;4.654;2022-08-19T08:36:07;6.68;;;4.10;;
26335;SDS011;14047;50.936;4.654;2022-08-19T08:38:36;7.72;;;4.10;;
26335;SDS011;14047;50.936;4.654;2022-08-19T08:41:05;7.53;;;4.22;;
26335;SDS011;14047;50.936;4.654;2022-08-19T08:43:38;15.48;;;4.47;;
26335;SDS011;14047;50.936;4.654;2022-08-19T08:46:10;11.88;;;5.10;;
26335;SDS011;14047;50.936;4.654;2022-08-19T08:48:48;9.00;;;4.60;;
26335;SDS011;14047;50.936;4.654;2022-08-19T08:51:20;13.48;;;5.28;;
26335;SDS011;14047;50.936;4.654;2022-08-19T08:54:10;9.52;;;4.50;;
26335;SDS011;14047;50.936;4.654;2022-08-19T08:56:38;9.30;;;4.93;;
26335;SDS011;14047;50.936;4.654;2022-08-19T08:59:07;8.02;;;4.22;;
26335;SDS011;14047;50.936;4.654;2022-08-19T09:01:42;12.63;;;5.35;;
26335;SDS011;14047;50.936;4.654;2022-08-19T09:04:08;9.98;;;4.22;;
26335;SDS011;14047;50.936;4.654;2022-08-19T09:06:48;11.52;;;3.40;;
26335;SDS011;14047;50.936;4.654;2022-08-19T09:09:32;8.60;;;4.00;;
26335;SDS011;14047;50.936;4.654;2022-08-19T09:12:14;7.22;;;3.72;;
26335;SDS011;14047;50.936;4.654;2022-08-19T09:15:02;6.63;;;3.53;;
26335;SDS011;14047;50.936;4.654;2022-08-19T09:17:29;7.78;;;3.78;;
26335;SDS011;14047;50.936;4.654;2022-08-19T09:19:57;7.53;;;3.55;;
26335;SDS011;14047;50.936;4.654;2022-08-19T09:22:35;7.63;;;3.17;;
26335;SDS011;14047;50.936;4.654;2022-08-19T09:25:02;7.78;;;4.03;;
26335;SDS011;14047;50.936;4.654;2022-08-19T09:27:30;13.02;;;4.00;;
26335;SDS011;14047;50.936;4.654;2022-08-19T09:29:57;11.55;;;3.63;;
26335;SDS011;14047;50.936;4.654;2022-08-19T09:32:23;8.43;;;4.20;;
26335;SDS011;14047;50.936;4.654;2022-08-19T09:34:52;5.78;;;3.60;;
26335;SDS011;14047;50.936;4.654;2022-08-19T09:37:23;7.97;;;3.45;;
26335;SDS011;14047;50.936;4.654;2022-08-19T09:39:49;8.27;;;3.78;;
26335;SDS011;14047;50.936;4.654;2022-08-19T09:42:16;9.50;;;3.85;;
26335;SDS011;14047;50.936;4.654;2022-08-19T09:44:42;7.85;;;3.70;;
26335;SDS011;14047;50.936;4.654;2022-08-19T09:47:08;5.72;;;3.20;;
26335;SDS011;14047;50.936;4.654;2022-08-19T09:49:35;5.30;;;3.28;;
26335;SDS011;14047;50.936;4.654;2022-08-19T09:52:01;11.60;;;3.58;;
26335;SDS011;14047;50.936;4.654;2022-08-19T09:54:26;6.13;;;3.40;;
26335;SDS011;14047;50.936;4.654;2022-08-19T09:56:53;7.97;;;3.67;;
26335;SDS011;14047;50.936;4.654;2022-08-19T09:59:19;6.70;;;3.90;;
26335;SDS011;14047;50.936;4.654;2022-08-19T10:01:45;10.07;;;4.00;;
26335;SDS011;14047;50.936;4.654;2022-08-19T10:04:11;5.90;;;3.20;;
26335;SDS011;14047;50.936;4.654;2022-08-19T10:06:37;9.30;;;4.03;;
26335;SDS011;14047;50.936;4.654;2022-08-19T10:09:05;5.22;;;3.88;;
26335;SDS011;14047;50.936;4.654;2022-08-19T10:11:33;11.50;;;4.57;;
26335;SDS011;14047;50.936;4.654;2022-08-19T10:14:01;8.88;;;4.03;;
26335;SDS011;14047;50.936;4.654;2022-08-19T10:16:32;10.88;;;5.93;;
26335;SDS011;14047;50.936;4.654;2022-08-19T10:19:00;12.10;;;4.93;;
26335;SDS011;14047;50.936;4.654;2022-08-19T10:21:29;7.68;;;4.50;;
26335;SDS011;14047;50.936;4.654;2022-08-19T10:23:57;9.90;;;5.00;;
26335;SDS011;14047;50.936;4.654;2022-08-19T10:26:26;6.93;;;4.15;;
26335;SDS011;14047;50.936;4.654;2022-08-19T10:28:53;8.60;;;3.88;;
26335;SDS011;14047;50.936;4.654;2022-08-19T10:31:23;8.75;;;4.05;;
26335;SDS011;14047;50.936;4.654;2022-08-19T10:33:51;6.60;;;3.83;;
26335;SDS011;14047;50.936;4.654;2022-08-19T10:36:23;8.30;;;3.58;;
26335;SDS011;14047;50.936;4.654;2022-08-19T10:38:51;7.68;;;4.40;;
26335;SDS011;14047;50.936;4.654;2022-08-19T10:41:22;7.38;;;4.45;;
26335;SDS011;14047;50.936;4.654;2022-08-19T10:43:53;9.18;;;4.28;;
26335;SDS011;14047;50.936;4.654;2022-08-19T10:46:20;6.60;;;3.88;;
26335;SDS011;14047;50.936;4.654;2022-08-19T10:48:48;10.20;;;4.53;;
26335;SDS011;14047;50.936;4.654;2022-08-19T10:51:14;7.53;;;4.05;;
26335;SDS011;14047;50.936;4.654;2022-08-19T10:53:59;8.77;;;3.60;;
26335;SDS011;14047;50.936;4.654;2022-08-19T10:56:26;7.63;;;3.70;;
26335;SDS011;14047;50.936;4.654;2022-08-19T10:59:11;8.35;;;4.25;;
26335;SDS011;14047;50.936;4.654;2022-08-19T11:01:39;8.70;;;3.60;;
26335;SDS011;14047;50.936;4.654;2022-08-19T11:04:06;7.38;;;3.47;;
26335;SDS011;14047;50.936;4.654;2022-08-19T11:06:35;7.57;;;4.10;;
26335;SDS011;14047;50.936;4.654;2022-08-19T11:09:03;7.90;;;3.78;;
26335;SDS011;14047;50.936;4.654;2022-08-19T11:11:30;6.45;;;3.33;;
26335;SDS011;14047;50.936;4.654;2022-08-19T11:13:57;5.70;;;4.13;;
26335;SDS011;14047;50.936;4.654;2022-08-19T11:16:24;4.75;;;2.90;;
26335;SDS011;14047;50.936;4.654;2022-08-19T11:18:52;5.35;;;3.00;;
26335;SDS011;14047;50.936;4.654;2022-08-19T11:21:24;8.07;;;3.10;;
26335;SDS011;14047;50.936;4.654;2022-08-19T11:23:53;5.90;;;2.33;;
26335;SDS011;14047;50.936;4.654;2022-08-19T11:26:21;5.28;;;2.85;;
26335;SDS011;14047;50.936;4.654;2022-08-19T11:28:47;4.78;;;2.50;;
26335;SDS011;14047;50.936;4.654;2022-08-19T11:31:19;3.15;;;2.20;;
26335;SDS011;14047;50.936;4.654;2022-08-19T11:33:47;3.45;;;2.17;;
26335;SDS011;14047;50.936;4.654;2022-08-19T11:36:18;4.38;;;2.75;;
26335;SDS011;14047;50.936;4.654;2022-08-19T11:38:45;4.85;;;2.53;;
26335;SDS011;14047;50.936;4.654;2022-08-19T11:41:13;4.43;;;2.60;;
26335;SDS011;14047;50.936;4.654;2022-08-19T11:43:41;5.70;;;2.50;;
26335;SDS011;14047;50.936;4.654;2022-08-19T11:46:07;4.88;;;2.70;;
26335;SDS011;14047;50.936;4.654;2022-08-19T11:48:40;4.97;;;2.78;;
26335;SDS011;14047;50.936;4.654;2022-08-19T11:51:07;5.55;;;4.00;;
26335;SDS011;14047;50.936;4.654;2022-08-19T11:53:35;6.93;;;4.20;;
26335;SDS011;14047;50.936;4.654;2022-08-19T11:56:03;5.13;;;3.28;;
26335;SDS011;14047;50.936;4.654;2022-08-19T11:58:29;7.97;;;4.13;;
26335;SDS011;14047;50.936;4.654;2022-08-19T12:00:55;6.35;;;3.95;;
26335;SDS011;14047;50.936;4.654;2022-08-19T12:03:21;10.52;;;4.38;;
26335;SDS011;14047;50.936;4.654;2022-08-19T12:05:47;4.75;;;3.50;;
26335;SDS011;14047;50.936;4.654;2022-08-19T12:08:14;4.40;;;3.10;;
26335;SDS011;14047;50.936;4.654;2022-08-19T12:10:40;6.00;;;3.67;;
26335;SDS011;14047;50.936;4.654;2022-08-19T12:13:07;5.28;;;3.10;;
26335;SDS011;14047;50.936;4.654;2022-08-19T12:15:37;5.05;;;3.28;;
26335;SDS011;14047;50.936;4.654;2022-08-19T12:18:05;5.88;;;3.15;;
26335;SDS011;14047;50.936;4.654;2022-08-19T12:20:34;4.07;;;2.90;;
26335;SDS011;14047;50.936;4.654;2022-08-19T12:23:00;5.28;;;2.55;;
26335;SDS011;14047;50.936;4.654;2022-08-19T12:25:26;4.72;;;3.03;;
26335;SDS011;14047;50.936;4.654;2022-08-19T12:27:52;5.63;;;2.30;;
26335;SDS011;14047;50.936;4.654;2022-08-19T12:30:17;3.63;;;2.58;;
26335;SDS011;14047;50.936;4.654;2022-08-19T12:32:44;7.30;;;2.97;;
26335;SDS011;14047;50.936;4.654;2022-08-19T12:35:10;6.47;;;2.22;;
26335;SDS011;14047;50.936;4.654;2022-08-19T12:37:36;3.88;;;3.05;;
26335;SDS011;14047;50.936;4.654;2022-08-19T12:40:02;4.70;;;3.35;;
26335;SDS011;14047;50.936;4.654;2022-08-19T12:42:28;5.28;;;3.88;;
26335;SDS011;14047;50.936;4.654;2022-08-19T12:44:55;5.50;;;4.05;;
26335;SDS011;14047;50.936;4.654;2022-08-19T12:47:20;8.45;;;5.15;;
26335;SDS011;14047;50.936;4.654;2022-08-19T12:49:46;5.70;;;5.05;;
26335;SDS011;14047;50.936;4.654;2022-08-19T12:52:13;5.72;;;4.47;;
26335;SDS011;14047;50.936;4.654;2022-08-19T12:54:40;7.20;;;4.53;;
26335;SDS011;14047;50.936;4.654;2022-08-19T12:57:08;5.85;;;4.18;;
26335;SDS011;14047;50.936;4.654;2022-08-19T12:59:35;6.88;;;4.60;;
26335;SDS011;14047;50.936;4.654;2022-08-19T13:02:06;8.68;;;5.00;;
26335;SDS011;14047;50.936;4.654;2022-08-19T13:04:32;7.88;;;5.28;;
26335;SDS011;14047;50.936;4.654;2022-08-19T13:07:01;10.40;;;4.72;;
26335;SDS011;14047;50.936;4.654;2022-08-19T13:09:27;6.82;;;4.57;;
26335;SDS011;14047;50.936;4.654;2022-08-19T13:11:53;7.70;;;4.57;;
26335;SDS011;14047;50.936;4.654;2022-08-19T13:14:19;6.85;;;5.13;;
26335;SDS011;14047;50.936;4.654;2022-08-19T13:16:44;5.68;;;4.68;;
26335;SDS011;14047;50.936;4.654;2022-08-19T13:19:11;7.00;;;4.00;;
26335;SDS011;14047;50.936;4.654;2022-08-19T13:21:38;6.70;;;3.72;;
26335;SDS011;14047;50.936;4.654;2022-08-19T13:24:04;6.40;;;3.80;;
26335;SDS011;14047;50.936;4.654;2022-08-19T13:26:29;6.20;;;3.80;;
26335;SDS011;14047;50.936;4.654;2022-08-19T13:28:55;7.35;;;3.42;;
26335;SDS011;14047;50.936;4.654;2022-08-19T13:31:40;10.18;;;3.20;;
26335;SDS011;14047;50.936;4.654;2022-08-19T13:34:26;10.50;;;3.40;;
26335;SDS011;14047;50.936;4.654;2022-08-19T13:36:58;7.40;;;3.45;;
26335;SDS011;14047;50.936;4.654;2022-08-19T13:39:24;3.85;;;2.63;;
26335;SDS011;14047;50.936;4.654;2022-08-19T13:41:49;5.32;;;2.92;;
26335;SDS011;14047;50.936;4.654;2022-08-19T13:44:15;5.40;;;2.97;;
26335;SDS011;14047;50.936;4.654;2022-08-19T13:46:46;5.72;;;2.63;;
26335;SDS011;14047;50.936;4.654;2022-08-19T13:49:13;4.03;;;2.10;;
26335;SDS011;14047;50.936;4.654;2022-08-19T13:51:40;6.03;;;2.20;;
26335;SDS011;14047;50.936;4.654;2022-08-19T13:54:07;6.25;;;2.17;;
26335;SDS011;14047;50.936;4.654;2022-08-19T13:56:34;5.10;;;2.30;;
26335;SDS011;14047;50.936;4.654;2022-08-19T13:59:04;4.88;;;1.90;;
26335;SDS011;14047;50.936;4.654;2022-08-19T14:01:30;8.38;;;2.03;;
26335;SDS011;14047;50.936;4.654;2022-08-19T14:03:56;4.53;;;1.92;;
26335;SDS011;14047;50.936;4.654;2022-08-19T14:06:21;3.35;;;1.75;;
26335;SDS011;14047;50.936;4.654;2022-08-19T14:08:47;3.95;;;1.70;;
26335;SDS011;14047;50.936;4.654;2022-08-19T14:11:13;2.58;;;1.70;;
26335;SDS011;14047;50.936;4.654;2022-08-19T14:13:39;2.50;;;1.50;;
26335;SDS011;14047;50.936;4.654;2022-08-19T14:16:08;2.47;;;1.75;;
26335;SDS011;14047;50.936;4.654;2022-08-19T14:18:38;2.92;;;1.30;;
26335;SDS011;14047;50.936;4.654;2022-08-19T14:21:05;2.53;;;1.48;;
26335;SDS011;14047;50.936;4.654;2022-08-19T14:23:31;2.22;;;1.27;;
26335;SDS011;14047;50.936;4.654;2022-08-19T14:26:15;4.45;;;1.55;;
26335;SDS011;14047;50.936;4.654;2022-08-19T14:28:41;4.13;;;1.67;;
26335;SDS011;14047;50.936;4.654;2022-08-19T14:31:11;5.47;;;1.33;;
26335;SDS011;14047;50.936;4.654;2022-08-19T14:33:41;6.13;;;1.50;;
26335;SDS011;14047;50.936;4.654;2022-08-19T14:36:07;3.55;;;0.80;;
26335;SDS011;14047;50.936;4.654;2022-08-19T14:38:33;2.75;;;1.15;;
26335;SDS011;14047;50.936;4.654;2022-08-19T14:41:06;1.40;;;0.70;;
26335;SDS011;14047;50.936;4.654;2022-08-19T14:43:33;1.25;;;0.95;;